Ambler Airport Ambler US
ICAO: PAFM
IATA:
Category: Medium
Scheduled Services:

Elevation: 334 ft
TransAlt. 18000 ft.

Airport Communications:
AWOS 3:132.1
ANCHORAGE CNTR:119.2
CTAF:122.7
KOTEZBUE RDO:122
TWEB:40.3

PAFM Zoom In..

If you have problems with the map follow the link
https://www.worldairports.se/pages/airport.php?
ICAO=PAFM

Runways:

(A) RW 09 length 2400 ft width 60 ft
---- / hdg 91

(B) RW 18 length 3000 ft width 60 ft
---- / hdg 181

(C) RW 27 length 2400 ft width 60 ft
---- / hdg 271

(D) RW 36 length 3000 ft width 60 ft
---- / hdg 1

Location; PAFM
Day. 11 / Time. 12.56 Zulu
* Altimeter: 29.71
* Temperature: -03° c. -26.6°f.
* Wind from: 000° Speed 00 kn.
Dewpoint: -06° c.
Visibility: 10 Statute Miles.
Clouds: Clear (automated report).

PAFM 111256Z AUTO 00000KT 10SM CLR M03/M06 A2971 RMK AO2 SLP068 T10281056 FZRANO


Wind - Calm.

 
 
jpsmedia worldairports.se 2019   terms of use